CheckWX is a tool to help pilots better visualize weather data.  It is not intended as a substitute for an official pre-flight weather briefing.

04:30:07 UTC

KTHA METAR
Tullahoma Regional Arpt / Wm Northern Field Airport
Tullahoma, Tennessee, USA
Current

30 mins ago

KTHA 270400Z AUTO 00000KT 10SM SCT050 22/21 A3020 RMK A01
Observed
Jun-27 @ 04:00 UTC
Visibility
10 SM
Flight Rules
VFR
Cloud Levels
  • Scattered at 5,000' AGL
Temperature
22°C / 72°F
Dewpoint
21°C / 70°F
Humidity
94%
Altimeter
30.2" Hg
Pressure
1022.72 hPa
Previous

50 mins ago

KTHA 270340Z AUTO 00000KT 10SM CLR 22/21 A3019 RMK A01
Observed
Jun-27 @ 03:40 UTC
Visibility
10 SM
Flight Rules
VFR
Cloud Levels
  • Clear skies
Temperature
22°C / 72°F
Dewpoint
21°C / 70°F
Humidity
94%
Altimeter
30.19" Hg
Pressure
1022.32 hPa
Previous

1 hour ago

KTHA 270320Z AUTO 00000KT 10SM CLR 23/22 A3021 RMK A01
Observed
Jun-27 @ 03:20 UTC
Visibility
10 SM
Flight Rules
VFR
Cloud Levels
  • Clear skies
Temperature
23°C / 73°F
Dewpoint
22°C / 72°F
Humidity
94%
Altimeter
30.21" Hg
Pressure
1023.02 hPa